sensor_id;sensor_type;location;lat;lon;timestamp;temperature;humidity
36442;DHT22;64346;50.820;16.274;2023-05-01T00:00:59;6.40;99.90
36442;DHT22;64346;50.820;16.274;2023-05-01T00:03:28;6.40;99.90
36442;DHT22;64346;50.820;16.274;2023-05-01T00:06:03;6.30;99.90
36442;DHT22;64346;50.820;16.274;2023-05-01T00:08:33;6.30;99.90
36442;DHT22;64346;50.820;16.274;2023-05-01T00:11:06;6.30;99.90
36442;DHT22;64346;50.820;16.274;2023-05-01T00:13:33;6.30;99.90
36442;DHT22;64346;50.820;16.274;2023-05-01T00:16:03;6.30;99.90
36442;DHT22;64346;50.820;16.274;2023-05-01T00:18:33;6.30;99.90
36442;DHT22;64346;50.820;16.274;2023-05-01T00:21:05;6.30;99.90
36442;DHT22;64346;50.820;16.274;2023-05-01T00:23:32;6.30;99.90
36442;DHT22;64346;50.820;16.274;2023-05-01T00:25:59;6.30;99.90
36442;DHT22;64346;50.820;16.274;2023-05-01T00:28:31;6.20;99.90
36442;DHT22;64346;50.820;16.274;2023-05-01T00:30:58;6.20;99.90
36442;DHT22;64346;50.820;16.274;2023-05-01T00:33:25;6.20;99.90
36442;DHT22;64346;50.820;16.274;2023-05-01T00:35:52;6.10;99.90
36442;DHT22;64346;50.820;16.274;2023-05-01T00:38:20;6.10;99.90
36442;DHT22;64346;50.820;16.274;2023-05-01T00:40:47;6.10;99.90
36442;DHT22;64346;50.820;16.274;2023-05-01T00:43:14;6.10;99.90
36442;DHT22;64346;50.820;16.274;2023-05-01T00:45:47;6.10;99.90
36442;DHT22;64346;50.820;16.274;2023-05-01T00:48:17;6.00;99.90
36442;DHT22;64346;50.820;16.274;2023-05-01T00:50:48;6.00;99.90
36442;DHT22;64346;50.820;16.274;2023-05-01T00:53:15;6.00;99.90
36442;DHT22;64346;50.820;16.274;2023-05-01T00:55:43;6.00;99.90
36442;DHT22;64346;50.820;16.274;2023-05-01T00:58:10;6.00;99.90
36442;DHT22;64346;50.820;16.274;2023-05-01T01:00:38;6.00;99.90
36442;DHT22;64346;50.820;16.274;2023-05-01T01:03:05;6.00;99.90
36442;DHT22;64346;50.820;16.274;2023-05-01T01:05:39;6.00;99.90
36442;DHT22;64346;50.820;16.274;2023-05-01T01:14:07;5.90;99.90
36442;DHT22;64346;50.820;16.274;2023-05-01T01:16:44;5.80;99.90
36442;DHT22;64346;50.820;16.274;2023-05-01T01:22:12;5.70;99.90
36442;DHT22;64346;50.820;16.274;2023-05-01T01:35:27;5.80;99.90
36442;DHT22;64346;50.820;16.274;2023-05-01T01:38:10;5.80;99.90
36442;DHT22;64346;50.820;16.274;2023-05-01T01:41:08;5.80;99.90
36442;DHT22;64346;50.820;16.274;2023-05-01T01:43:53;5.70;99.90
36442;DHT22;64346;50.820;16.274;2023-05-01T01:46:22;5.70;99.90
36442;DHT22;64346;50.820;16.274;2023-05-01T01:48:51;5.70;99.90
36442;DHT22;64346;50.820;16.274;2023-05-01T01:51:22;5.60;99.90
36442;DHT22;64346;50.820;16.274;2023-05-01T01:53:52;5.70;99.90
36442;DHT22;64346;50.820;16.274;2023-05-01T01:56:25;5.70;99.90
36442;DHT22;64346;50.820;16.274;2023-05-01T01:58:54;5.80;99.90
36442;DHT22;64346;50.820;16.274;2023-05-01T02:01:26;5.80;99.90
36442;DHT22;64346;50.820;16.274;2023-05-01T02:03:58;5.80;99.90
36442;DHT22;64346;50.820;16.274;2023-05-01T02:06:29;5.80;99.90
36442;DHT22;64346;50.820;16.274;2023-05-01T02:09:01;5.80;99.90
36442;DHT22;64346;50.820;16.274;2023-05-01T02:11:29;5.80;99.90
36442;DHT22;64346;50.820;16.274;2023-05-01T02:13:58;5.80;99.90
36442;DHT22;64346;50.820;16.274;2023-05-01T02:16:27;5.80;99.90
36442;DHT22;64346;50.820;16.274;2023-05-01T02:18:54;5.70;99.90
36442;DHT22;64346;50.820;16.274;2023-05-01T02:21:23;5.70;99.90
36442;DHT22;64346;50.820;16.274;2023-05-01T02:23:51;5.70;99.90
36442;DHT22;64346;50.820;16.274;2023-05-01T02:26:22;5.70;99.90
36442;DHT22;64346;50.820;16.274;2023-05-01T02:28:53;5.70;99.90
36442;DHT22;64346;50.820;16.274;2023-05-01T02:31:23;5.60;99.90
36442;DHT22;64346;50.820;16.274;2023-05-01T02:33:50;5.70;99.90
36442;DHT22;64346;50.820;16.274;2023-05-01T02:36:17;5.60;99.90
36442;DHT22;64346;50.820;16.274;2023-05-01T02:38:44;5.60;99.90
36442;DHT22;64346;50.820;16.274;2023-05-01T02:41:14;5.50;99.90
36442;DHT22;64346;50.820;16.274;2023-05-01T02:43:42;5.50;99.90
36442;DHT22;64346;50.820;16.274;2023-05-01T02:46:12;5.40;99.90
36442;DHT22;64346;50.820;16.274;2023-05-01T02:48:41;5.50;99.90
36442;DHT22;64346;50.820;16.274;2023-05-01T02:51:09;5.50;99.90
36442;DHT22;64346;50.820;16.274;2023-05-01T02:53:36;5.40;99.90
36442;DHT22;64346;50.820;16.274;2023-05-01T02:56:03;5.40;99.90
36442;DHT22;64346;50.820;16.274;2023-05-01T02:58:32;5.40;99.90
36442;DHT22;64346;50.820;16.274;2023-05-01T03:03:34;5.40;99.90
36442;DHT22;64346;50.820;16.274;2023-05-01T03:06:02;5.40;99.90
36442;DHT22;64346;50.820;16.274;2023-05-01T03:08:29;5.40;99.90
36442;DHT22;64346;50.820;16.274;2023-05-01T03:10:56;5.30;99.90
36442;DHT22;64346;50.820;16.274;2023-05-01T03:13:23;5.30;99.90
36442;DHT22;64346;50.820;16.274;2023-05-01T03:15:51;5.20;99.90
36442;DHT22;64346;50.820;16.274;2023-05-01T03:18:18;5.20;99.90
36442;DHT22;64346;50.820;16.274;2023-05-01T03:20:55;5.20;99.90
36442;DHT22;64346;50.820;16.274;2023-05-01T03:23:25;5.10;99.90
36442;DHT22;64346;50.820;16.274;2023-05-01T03:25:52;5.20;99.90
36442;DHT22;64346;50.820;16.274;2023-05-01T03:28:19;5.10;99.90
36442;DHT22;64346;50.820;16.274;2023-05-01T03:30:46;5.20;99.90
36442;DHT22;64346;50.820;16.274;2023-05-01T03:33:16;5.20;99.90
36442;DHT22;64346;50.820;16.274;2023-05-01T03:35:43;5.20;99.90
36442;DHT22;64346;50.820;16.274;2023-05-01T03:38:10;5.30;99.90
36442;DHT22;64346;50.820;16.274;2023-05-01T03:40:37;5.40;99.90
36442;DHT22;64346;50.820;16.274;2023-05-01T03:43:04;5.50;99.90
36442;DHT22;64346;50.820;16.274;2023-05-01T03:45:32;5.70;99.90
36442;DHT22;64346;50.820;16.274;2023-05-01T03:48:01;5.80;99.90
36442;DHT22;64346;50.820;16.274;2023-05-01T03:50:28;6.10;99.90
36442;DHT22;64346;50.820;16.274;2023-05-01T03:52:58;6.30;99.90
36442;DHT22;64346;50.820;16.274;2023-05-01T03:55:25;6.50;99.90
36442;DHT22;64346;50.820;16.274;2023-05-01T03:57:52;6.80;99.90
36442;DHT22;64346;50.820;16.274;2023-05-01T04:00:20;7.00;99.90
36442;DHT22;64346;50.820;16.274;2023-05-01T04:02:47;7.40;99.90
36442;DHT22;64346;50.820;16.274;2023-05-01T04:05:15;7.70;99.90
36442;DHT22;64346;50.820;16.274;2023-05-01T04:07:42;8.00;99.90
36442;DHT22;64346;50.820;16.274;2023-05-01T04:10:12;8.30;99.90
36442;DHT22;64346;50.820;16.274;2023-05-01T04:12:39;8.50;99.90
36442;DHT22;64346;50.820;16.274;2023-05-01T04:15:07;8.80;99.90
36442;DHT22;64346;50.820;16.274;2023-05-01T04:17:40;9.10;99.90
36442;DHT22;64346;50.820;16.274;2023-05-01T04:20:08;9.30;99.90
36442;DHT22;64346;50.820;16.274;2023-05-01T04:22:35;9.60;99.90
36442;DHT22;64346;50.820;16.274;2023-05-01T04:25:03;9.90;99.90
36442;DHT22;64346;50.820;16.274;2023-05-01T04:27:32;10.20;99.90
36442;DHT22;64346;50.820;16.274;2023-05-01T04:30:02;10.50;99.90
36442;DHT22;64346;50.820;16.274;2023-05-01T04:32:29;10.90;99.90
36442;DHT22;64346;50.820;16.274;2023-05-01T04:34:57;11.30;99.90
36442;DHT22;64346;50.820;16.274;2023-05-01T04:37:24;11.70;99.90
36442;DHT22;64346;50.820;16.274;2023-05-01T04:39:51;12.00;99.90
36442;DHT22;64346;50.820;16.274;2023-05-01T04:42:18;12.40;99.90
36442;DHT22;64346;50.820;16.274;2023-05-01T04:44:48;12.70;99.30
36442;DHT22;64346;50.820;16.274;2023-05-01T04:47:15;13.00;98.60
36442;DHT22;64346;50.820;16.274;2023-05-01T04:49:42;13.40;98.40
36442;DHT22;64346;50.820;16.274;2023-05-01T04:52:12;13.80;97.50
36442;DHT22;64346;50.820;16.274;2023-05-01T04:54:39;14.10;96.60
36442;DHT22;64346;50.820;16.274;2023-05-01T04:57:06;14.50;95.60
36442;DHT22;64346;50.820;16.274;2023-05-01T04:59:34;14.90;95.30
36442;DHT22;64346;50.820;16.274;2023-05-01T05:02:01;15.30;94.70
36442;DHT22;64346;50.820;16.274;2023-05-01T05:04:28;15.90;93.30
36442;DHT22;64346;50.820;16.274;2023-05-01T05:06:55;16.30;92.70
36442;DHT22;64346;50.820;16.274;2023-05-01T05:09:23;16.90;91.50
36442;DHT22;64346;50.820;16.274;2023-05-01T05:11:50;17.60;90.10
36442;DHT22;64346;50.820;16.274;2023-05-01T05:14:17;18.10;88.80
36442;DHT22;64346;50.820;16.274;2023-05-01T05:16:46;18.60;86.40
36442;DHT22;64346;50.820;16.274;2023-05-01T05:19:15;19.10;84.30
36442;DHT22;64346;50.820;16.274;2023-05-01T05:21:44;19.90;80.50
36442;DHT22;64346;50.820;16.274;2023-05-01T05:24:14;20.50;77.70
36442;DHT22;64346;50.820;16.274;2023-05-01T05:26:41;21.10;75.00
36442;DHT22;64346;50.820;16.274;2023-05-01T05:29:09;21.80;72.90
36442;DHT22;64346;50.820;16.274;2023-05-01T05:31:36;22.40;69.60
36442;DHT22;64346;50.820;16.274;2023-05-01T05:34:03;22.70;67.80
36442;DHT22;64346;50.820;16.274;2023-05-01T05:36:33;23.40;65.70
36442;DHT22;64346;50.820;16.274;2023-05-01T05:39:00;24.30;62.30
36442;DHT22;64346;50.820;16.274;2023-05-01T05:41:27;25.30;58.90
36442;DHT22;64346;50.820;16.274;2023-05-01T05:43:54;26.50;56.80
36442;DHT22;64346;50.820;16.274;2023-05-01T05:46:21;27.60;52.90
36442;DHT22;64346;50.820;16.274;2023-05-01T05:48:49;29.00;50.30
36442;DHT22;64346;50.820;16.274;2023-05-01T05:51:16;30.50;47.10
36442;DHT22;64346;50.820;16.274;2023-05-01T05:53:48;31.70;45.50
36442;DHT22;64346;50.820;16.274;2023-05-01T05:56:15;33.00;43.10
36442;DHT22;64346;50.820;16.274;2023-05-01T05:58:42;33.60;41.70
36442;DHT22;64346;50.820;16.274;2023-05-01T06:01:09;34.10;40.00
36442;DHT22;64346;50.820;16.274;2023-05-01T06:03:39;34.40;38.70
36442;DHT22;64346;50.820;16.274;2023-05-01T06:06:06;35.20;38.20
36442;DHT22;64346;50.820;16.274;2023-05-01T06:08:34;35.80;37.10
36442;DHT22;64346;50.820;16.274;2023-05-01T06:11:03;36.70;36.80
36442;DHT22;64346;50.820;16.274;2023-05-01T06:13:33;37.80;35.70
36442;DHT22;64346;50.820;16.274;2023-05-01T06:16:00;38.70;35.00
36442;DHT22;64346;50.820;16.274;2023-05-01T06:18:27;38.70;34.40
36442;DHT22;64346;50.820;16.274;2023-05-01T06:20:55;39.00;34.00
36442;DHT22;64346;50.820;16.274;2023-05-01T06:23:22;39.50;33.70
36442;DHT22;64346;50.820;16.274;2023-05-01T06:25:52;39.20;32.80
36442;DHT22;64346;50.820;16.274;2023-05-01T06:28:19;38.70;33.00
36442;DHT22;64346;50.820;16.274;2023-05-01T06:30:46;39.20;33.00
36442;DHT22;64346;50.820;16.274;2023-05-01T06:33:13;39.00;32.90
36442;DHT22;64346;50.820;16.274;2023-05-01T06:35:41;39.70;32.60
36442;DHT22;64346;50.820;16.274;2023-05-01T06:38:08;40.00;31.60
36442;DHT22;64346;50.820;16.274;2023-05-01T06:40:35;39.70;31.30
36442;DHT22;64346;50.820;16.274;2023-05-01T06:43:02;38.40;32.10
36442;DHT22;64346;50.820;16.274;2023-05-01T06:45:32;38.00;32.30
36442;DHT22;64346;50.820;16.274;2023-05-01T06:48:00;38.40;31.80
36442;DHT22;64346;50.820;16.274;2023-05-01T06:50:29;39.30;31.80
36442;DHT22;64346;50.820;16.274;2023-05-01T06:53:03;39.60;30.90
36442;DHT22;64346;50.820;16.274;2023-05-01T06:55:39;38.90;31.40
36442;DHT22;64346;50.820;16.274;2023-05-01T06:58:13;39.60;31.00
36442;DHT22;64346;50.820;16.274;2023-05-01T07:00:50;38.80;31.40
36442;DHT22;64346;50.820;16.274;2023-05-01T07:03:23;39.50;31.00
36442;DHT22;64346;50.820;16.274;2023-05-01T07:05:53;38.80;30.80
36442;DHT22;64346;50.820;16.274;2023-05-01T07:08:23;38.40;31.00
36442;DHT22;64346;50.820;16.274;2023-05-01T07:10:50;38.50;31.40
36442;DHT22;64346;50.820;16.274;2023-05-01T07:13:20;37.20;31.00
36442;DHT22;64346;50.820;16.274;2023-05-01T07:15:47;36.90;31.40
36442;DHT22;64346;50.820;16.274;2023-05-01T07:18:18;37.70;31.80
36442;DHT22;64346;50.820;16.274;2023-05-01T07:21:01;37.70;31.30
36442;DHT22;64346;50.820;16.274;2023-05-01T07:23:31;38.20;30.50
36442;DHT22;64346;50.820;16.274;2023-05-01T07:25:59;37.40;30.90
36442;DHT22;64346;50.820;16.274;2023-05-01T07:28:26;37.70;31.10
36442;DHT22;64346;50.820;16.274;2023-05-01T07:30:54;38.30;31.00
36442;DHT22;64346;50.820;16.274;2023-05-01T07:33:22;39.50;30.50
36442;DHT22;64346;50.820;16.274;2023-05-01T07:35:50;40.30;30.60
36442;DHT22;64346;50.820;16.274;2023-05-01T07:38:17;40.70;30.60
36442;DHT22;64346;50.820;16.274;2023-05-01T07:40:44;41.80;30.00
36442;DHT22;64346;50.820;16.274;2023-05-01T07:43:12;42.20;29.90
36442;DHT22;64346;50.820;16.274;2023-05-01T07:48:28;42.70;29.50
36442;DHT22;64346;50.820;16.274;2023-05-01T07:50:59;41.20;29.50
36442;DHT22;64346;50.820;16.274;2023-05-01T07:53:27;41.20;30.00
36442;DHT22;64346;50.820;16.274;2023-05-01T07:56:07;39.30;29.80
36442;DHT22;64346;50.820;16.274;2023-05-01T07:58:35;39.30;30.00
36442;DHT22;64346;50.820;16.274;2023-05-01T08:01:05;39.50;29.90
36442;DHT22;64346;50.820;16.274;2023-05-01T08:03:33;40.50;29.80
36442;DHT22;64346;50.820;16.274;2023-05-01T08:06:00;41.90;30.00
36442;DHT22;64346;50.820;16.274;2023-05-01T08:08:30;41.30;29.50
36442;DHT22;64346;50.820;16.274;2023-05-01T08:11:00;41.30;29.70
36442;DHT22;64346;50.820;16.274;2023-05-01T08:13:27;42.00;29.70
36442;DHT22;64346;50.820;16.274;2023-05-01T08:16:02;42.50;29.80
36442;DHT22;64346;50.820;16.274;2023-05-01T08:18:31;43.30;30.00
36442;DHT22;64346;50.820;16.274;2023-05-01T08:21:06;43.40;29.90
36442;DHT22;64346;50.820;16.274;2023-05-01T08:23:36;42.90;29.60
36442;DHT22;64346;50.820;16.274;2023-05-01T08:26:05;42.50;29.50
36442;DHT22;64346;50.820;16.274;2023-05-01T08:28:34;42.50;29.90
36442;DHT22;64346;50.820;16.274;2023-05-01T08:31:04;41.90;29.70
36442;DHT22;64346;50.820;16.274;2023-05-01T08:33:34;41.00;29.40
36442;DHT22;64346;50.820;16.274;2023-05-01T08:36:08;40.30;29.90
36442;DHT22;64346;50.820;16.274;2023-05-01T08:38:36;40.70;30.00
36442;DHT22;64346;50.820;16.274;2023-05-01T08:41:03;41.00;29.60
36442;DHT22;64346;50.820;16.274;2023-05-01T08:43:35;42.00;29.90
36442;DHT22;64346;50.820;16.274;2023-05-01T08:46:07;42.90;29.70
36442;DHT22;64346;50.820;16.274;2023-05-01T08:48:36;43.40;29.20
36442;DHT22;64346;50.820;16.274;2023-05-01T08:51:17;43.40;29.60
36442;DHT22;64346;50.820;16.274;2023-05-01T08:53:47;43.80;29.60
36442;DHT22;64346;50.820;16.274;2023-05-01T08:56:15;43.60;29.40
36442;DHT22;64346;50.820;16.274;2023-05-01T08:58:48;42.80;29.30
36442;DHT22;64346;50.820;16.274;2023-05-01T09:01:21;42.60;29.50
36442;DHT22;64346;50.820;16.274;2023-05-01T09:03:54;41.90;30.00
36442;DHT22;64346;50.820;16.274;2023-05-01T09:06:24;41.20;29.70
36442;DHT22;64346;50.820;16.274;2023-05-01T09:08:54;41.00;30.00
36442;DHT22;64346;50.820;16.274;2023-05-01T09:11:22;40.60;30.00
36442;DHT22;64346;50.820;16.274;2023-05-01T09:13:51;41.10;30.50
36442;DHT22;64346;50.820;16.274;2023-05-01T09:16:19;40.70;30.00
36442;DHT22;64346;50.820;16.274;2023-05-01T09:18:52;40.10;30.00
36442;DHT22;64346;50.820;16.274;2023-05-01T09:21:23;39.60;30.00
36442;DHT22;64346;50.820;16.274;2023-05-01T09:23:51;39.30;30.50
36442;DHT22;64346;50.820;16.274;2023-05-01T09:26:20;39.20;30.50
36442;DHT22;64346;50.820;16.274;2023-05-01T09:28:53;38.70;30.70
36442;DHT22;64346;50.820;16.274;2023-05-01T09:31:25;38.50;30.50
36442;DHT22;64346;50.820;16.274;2023-05-01T09:33:58;37.70;30.80
36442;DHT22;64346;50.820;16.274;2023-05-01T09:36:30;36.80;31.10
36442;DHT22;64346;50.820;16.274;2023-05-01T09:39:00;36.90;31.10
36442;DHT22;64346;50.820;16.274;2023-05-01T09:41:28;36.40;31.00
36442;DHT22;64346;50.820;16.274;2023-05-01T09:43:56;34.80;31.90
36442;DHT22;64346;50.820;16.274;2023-05-01T09:46:24;33.70;32.80
36442;DHT22;64346;50.820;16.274;2023-05-01T09:49:00;32.70;33.50
36442;DHT22;64346;50.820;16.274;2023-05-01T09:51:47;31.60;33.80
36442;DHT22;64346;50.820;16.274;2023-05-01T09:54:21;30.50;36.30
36442;DHT22;64346;50.820;16.274;2023-05-01T09:56:50;29.30;36.80
36442;DHT22;64346;50.820;16.274;2023-05-01T09:59:19;28.40;37.50
36442;DHT22;64346;50.820;16.274;2023-05-01T10:01:47;27.50;37.20
36442;DHT22;64346;50.820;16.274;2023-05-01T10:04:15;26.70;39.30
36442;DHT22;64346;50.820;16.274;2023-05-01T10:06:44;26.20;38.20
36442;DHT22;64346;50.820;16.274;2023-05-01T10:09:26;25.30;39.90
36442;DHT22;64346;50.820;16.274;2023-05-01T10:11:56;24.30;41.10
36442;DHT22;64346;50.820;16.274;2023-05-01T10:14:26;23.30;42.60
36442;DHT22;64346;50.820;16.274;2023-05-01T10:16:53;22.30;43.70
36442;DHT22;64346;50.820;16.274;2023-05-01T10:19:21;21.90;45.30
36442;DHT22;64346;50.820;16.274;2023-05-01T10:21:48;21.70;44.80
36442;DHT22;64346;50.820;16.274;2023-05-01T10:24:20;21.80;45.10
36442;DHT22;64346;50.820;16.274;2023-05-01T10:26:48;21.60;44.90
36442;DHT22;64346;50.820;16.274;2023-05-01T10:29:18;21.50;45.30
36442;DHT22;64346;50.820;16.274;2023-05-01T10:31:46;21.20;45.80
36442;DHT22;64346;50.820;16.274;2023-05-01T10:34:20;21.20;46.20
36442;DHT22;64346;50.820;16.274;2023-05-01T10:36:57;21.10;47.30
36442;DHT22;64346;50.820;16.274;2023-05-01T10:39:33;21.10;48.40
36442;DHT22;64346;50.820;16.274;2023-05-01T10:42:04;21.10;46.90
36442;DHT22;64346;50.820;16.274;2023-05-01T10:44:34;21.10;47.30
36442;DHT22;64346;50.820;16.274;2023-05-01T10:50:06;21.20;45.20
36442;DHT22;64346;50.820;16.274;2023-05-01T10:58:06;21.40;44.60
36442;DHT22;64346;50.820;16.274;2023-05-01T11:00:33;21.40;47.10
36442;DHT22;64346;50.820;16.274;2023-05-01T11:08:37;21.30;46.00
36442;DHT22;64346;50.820;16.274;2023-05-01T11:19:07;20.70;45.40
36442;DHT22;64346;50.820;16.274;2023-05-01T11:21:36;20.60;46.70
36442;DHT22;64346;50.820;16.274;2023-05-01T11:24:09;20.90;45.60
36442;DHT22;64346;50.820;16.274;2023-05-01T11:26:40;21.00;42.60
36442;DHT22;64346;50.820;16.274;2023-05-01T11:29:10;21.30;41.90
36442;DHT22;64346;50.820;16.274;2023-05-01T11:31:38;21.60;42.20
36442;DHT22;64346;50.820;16.274;2023-05-01T11:34:08;21.70;39.90
36442;DHT22;64346;50.820;16.274;2023-05-01T11:36:49;21.90;40.30
36442;DHT22;64346;50.820;16.274;2023-05-01T11:39:17;21.80;39.90
36442;DHT22;64346;50.820;16.274;2023-05-01T11:41:45;21.30;39.50
36442;DHT22;64346;50.820;16.274;2023-05-01T11:44:17;21.00;39.40
36442;DHT22;64346;50.820;16.274;2023-05-01T11:46:57;20.70;42.10
36442;DHT22;64346;50.820;16.274;2023-05-01T11:49:28;20.70;42.70
36442;DHT22;64346;50.820;16.274;2023-05-01T11:51:58;20.80;42.70
36442;DHT22;64346;50.820;16.274;2023-05-01T11:54:25;20.80;42.70
36442;DHT22;64346;50.820;16.274;2023-05-01T11:56:57;20.80;42.20
36442;DHT22;64346;50.820;16.274;2023-05-01T11:59:25;20.70;42.50
36442;DHT22;64346;50.820;16.274;2023-05-01T12:01:52;20.30;43.10
36442;DHT22;64346;50.820;16.274;2023-05-01T12:04:28;20.10;43.50
36442;DHT22;64346;50.820;16.274;2023-05-01T12:06:58;20.20;44.10
36442;DHT22;64346;50.820;16.274;2023-05-01T12:09:28;20.00;43.20
36442;DHT22;64346;50.820;16.274;2023-05-01T12:11:56;20.10;42.90
36442;DHT22;64346;50.820;16.274;2023-05-01T12:14:26;19.70;43.90
36442;DHT22;64346;50.820;16.274;2023-05-01T12:16:54;19.50;44.60
36442;DHT22;64346;50.820;16.274;2023-05-01T12:19:21;19.60;45.50
36442;DHT22;64346;50.820;16.274;2023-05-01T12:22:04;19.70;44.40
36442;DHT22;64346;50.820;16.274;2023-05-01T12:24:31;19.60;43.50
36442;DHT22;64346;50.820;16.274;2023-05-01T12:27:01;19.60;44.70
36442;DHT22;64346;50.820;16.274;2023-05-01T12:29:41;19.70;45.30
36442;DHT22;64346;50.820;16.274;2023-05-01T12:32:08;19.70;44.70
36442;DHT22;64346;50.820;16.274;2023-05-01T12:34:36;19.60;44.40
36442;DHT22;64346;50.820;16.274;2023-05-01T12:37:03;19.80;44.60
36442;DHT22;64346;50.820;16.274;2023-05-01T12:39:38;19.80;45.30
36442;DHT22;64346;50.820;16.274;2023-05-01T12:42:14;19.90;45.80
36442;DHT22;64346;50.820;16.274;2023-05-01T12:44:42;20.10;45.50
36442;DHT22;64346;50.820;16.274;2023-05-01T12:47:12;20.10;44.90
36442;DHT22;64346;50.820;16.274;2023-05-01T12:49:40;20.30;45.50
36442;DHT22;64346;50.820;16.274;2023-05-01T12:52:07;20.60;45.40
36442;DHT22;64346;50.820;16.274;2023-05-01T12:54:36;20.80;45.10
36442;DHT22;64346;50.820;16.274;2023-05-01T12:59:31;21.00;44.70
36442;DHT22;64346;50.820;16.274;2023-05-01T13:01:59;21.00;44.80
36442;DHT22;64346;50.820;16.274;2023-05-01T13:04:30;21.00;45.50
36442;DHT22;64346;50.820;16.274;2023-05-01T13:06:58;21.10;45.20
36442;DHT22;64346;50.820;16.274;2023-05-01T13:09:29;21.20;44.90
36442;DHT22;64346;50.820;16.274;2023-05-01T13:12:00;21.20;44.60
36442;DHT22;64346;50.820;16.274;2023-05-01T13:14:40;21.30;45.30
36442;DHT22;64346;50.820;16.274;2023-05-01T13:17:11;21.30;45.50
36442;DHT22;64346;50.820;16.274;2023-05-01T13:19:38;21.30;45.90
36442;DHT22;64346;50.820;16.274;2023-05-01T13:22:06;21.50;46.60
36442;DHT22;64346;50.820;16.274;2023-05-01T13:24:39;21.30;44.80
36442;DHT22;64346;50.820;16.274;2023-05-01T13:27:08;21.10;45.70
36442;DHT22;64346;50.820;16.274;2023-05-01T13:29:35;20.80;45.70
36442;DHT22;64346;50.820;16.274;2023-05-01T13:32:04;20.60;45.70
36442;DHT22;64346;50.820;16.274;2023-05-01T13:34:33;20.30;46.00
36442;DHT22;64346;50.820;16.274;2023-05-01T13:37:01;20.00;47.10
36442;DHT22;64346;50.820;16.274;2023-05-01T13:39:28;19.80;47.10
36442;DHT22;64346;50.820;16.274;2023-05-01T13:42:00;19.80;47.70
36442;DHT22;64346;50.820;16.274;2023-05-01T13:44:31;19.50;47.60
36442;DHT22;64346;50.820;16.274;2023-05-01T13:47:01;19.50;48.60
36442;DHT22;64346;50.820;16.274;2023-05-01T13:49:28;19.50;47.90
36442;DHT22;64346;50.820;16.274;2023-05-01T13:51:56;19.40;49.40
36442;DHT22;64346;50.820;16.274;2023-05-01T13:54:23;19.50;51.40
36442;DHT22;64346;50.820;16.274;2023-05-01T13:56:50;19.70;51.20
36442;DHT22;64346;50.820;16.274;2023-05-01T13:59:20;19.80;52.00
36442;DHT22;64346;50.820;16.274;2023-05-01T14:01:50;19.90;52.30
36442;DHT22;64346;50.820;16.274;2023-05-01T14:04:18;20.00;52.20
36442;DHT22;64346;50.820;16.274;2023-05-01T14:06:47;20.00;52.40
36442;DHT22;64346;50.820;16.274;2023-05-01T14:09:16;20.10;51.20
36442;DHT22;64346;50.820;16.274;2023-05-01T14:11:48;20.10;51.80
36442;DHT22;64346;50.820;16.274;2023-05-01T14:14:17;20.10;52.10
36442;DHT22;64346;50.820;16.274;2023-05-01T14:16:46;20.10;51.90
36442;DHT22;64346;50.820;16.274;2023-05-01T14:19:15;20.00;52.40
36442;DHT22;64346;50.820;16.274;2023-05-01T14:21:45;19.90;53.20
36442;DHT22;64346;50.820;16.274;2023-05-01T14:24:14;20.00;54.10
36442;DHT22;64346;50.820;16.274;2023-05-01T14:26:43;20.00;53.50
36442;DHT22;64346;50.820;16.274;2023-05-01T14:29:24;19.90;53.90
36442;DHT22;64346;50.820;16.274;2023-05-01T14:31:54;19.80;54.00
36442;DHT22;64346;50.820;16.274;2023-05-01T14:34:21;19.70;54.40
36442;DHT22;64346;50.820;16.274;2023-05-01T14:36:49;19.60;54.40
36442;DHT22;64346;50.820;16.274;2023-05-01T14:39:17;19.70;55.10
36442;DHT22;64346;50.820;16.274;2023-05-01T14:41:45;19.70;55.00
36442;DHT22;64346;50.820;16.274;2023-05-01T14:44:17;19.60;55.40
36442;DHT22;64346;50.820;16.274;2023-05-01T14:46:47;19.50;55.80
36442;DHT22;64346;50.820;16.274;2023-05-01T14:49:19;19.50;55.90
36442;DHT22;64346;50.820;16.274;2023-05-01T14:51:48;19.50;55.10
36442;DHT22;64346;50.820;16.274;2023-05-01T14:54:18;19.50;55.50
36442;DHT22;64346;50.820;16.274;2023-05-01T14:56:47;19.50;56.00
36442;DHT22;64346;50.820;16.274;2023-05-01T14:59:16;19.20;55.80
36442;DHT22;64346;50.820;16.274;2023-05-01T15:01:51;19.20;56.00
36442;DHT22;64346;50.820;16.274;2023-05-01T15:04:18;19.00;55.90
36442;DHT22;64346;50.820;16.274;2023-05-01T15:06:45;18.90;56.90
36442;DHT22;64346;50.820;16.274;2023-05-01T15:09:15;18.90;57.30
36442;DHT22;64346;50.820;16.274;2023-05-01T15:11:42;18.90;54.70
36442;DHT22;64346;50.820;16.274;2023-05-01T15:14:16;19.00;53.80
36442;DHT22;64346;50.820;16.274;2023-05-01T15:16:46;19.00;54.50
36442;DHT22;64346;50.820;16.274;2023-05-01T15:19:15;19.10;54.60
36442;DHT22;64346;50.820;16.274;2023-05-01T15:21:45;19.20;55.50
36442;DHT22;64346;50.820;16.274;2023-05-01T15:24:12;19.20;55.80
36442;DHT22;64346;50.820;16.274;2023-05-01T15:26:39;19.30;56.60
36442;DHT22;64346;50.820;16.274;2023-05-01T15:29:09;19.30;56.30
36442;DHT22;64346;50.820;16.274;2023-05-01T15:31:39;19.20;56.50
36442;DHT22;64346;50.820;16.274;2023-05-01T15:34:06;19.20;56.80
36442;DHT22;64346;50.820;16.274;2023-05-01T15:36:35;19.30;57.10
36442;DHT22;64346;50.820;16.274;2023-05-01T15:39:05;19.40;57.60
36442;DHT22;64346;50.820;16.274;2023-05-01T15:41:37;19.40;58.30
36442;DHT22;64346;50.820;16.274;2023-05-01T15:44:18;19.50;58.60
36442;DHT22;64346;50.820;16.274;2023-05-01T15:46:51;19.40;58.40
36442;DHT22;64346;50.820;16.274;2023-05-01T15:49:22;19.30;58.70
36442;DHT22;64346;50.820;16.274;2023-05-01T15:51:49;19.20;58.20
36442;DHT22;64346;50.820;16.274;2023-05-01T15:54:16;18.90;58.40
36442;DHT22;64346;50.820;16.274;2023-05-01T15:56:44;18.80;58.80
36442;DHT22;64346;50.820;16.274;2023-05-01T15:59:19;18.80;59.10
36442;DHT22;64346;50.820;16.274;2023-05-01T16:01:51;18.90;59.10
36442;DHT22;64346;50.820;16.274;2023-05-01T16:04:19;18.90;59.90
36442;DHT22;64346;50.820;16.274;2023-05-01T16:06:51;18.90;60.40
36442;DHT22;64346;50.820;16.274;2023-05-01T16:09:18;18.90;60.50
36442;DHT22;64346;50.820;16.274;2023-05-01T16:11:45;19.00;61.00
36442;DHT22;64346;50.820;16.274;2023-05-01T16:14:14;19.00;61.60
36442;DHT22;64346;50.820;16.274;2023-05-01T16:16:45;19.00;62.20
36442;DHT22;64346;50.820;16.274;2023-05-01T16:19:14;18.90;62.40
36442;DHT22;64346;50.820;16.274;2023-05-01T16:21:45;18.80;62.50
36442;DHT22;64346;50.820;16.274;2023-05-01T16:24:12;18.80;62.70